Time;durP1;ratioP1;P1;durP2;ratioP2;P2;SDS_P1;SDS_P2;PMS_P1;PMS_P2;Temp;Humidity;BMP_temperature;BMP_pressure;BME280_temperature;BME280_humidity;BME280_pressure;Samples;Min_cycle;Max_cycle;Signal;HPM_P1;HPM_P2
2021/01/30 00:00:00;;;;;;;;;;;;;;;20.69;31.69;99500.16;5080361;28;736;-50
2021/01/30 00:02:26;;;;;;;;;;;;;;;20.08;32.84;99498.44;5079232;28;779;-44
2021/01/30 00:04:51;;;;;;;;;;;;;;;20.11;32.67;99500.53;5078900;28;879;-50
2021/01/30 00:07:17;;;;;;;;;;;;;;;19.61;33.51;99493.56;5079596;28;819;-49
2021/01/30 00:09:43;;;;;;;;;;;;;;;19.73;33.71;99489.38;5079365;28;1906;-53
2021/01/30 00:12:09;;;;;;;;;;;;;;;20.58;32.00;99485.09;5079836;28;797;-51
2021/01/30 00:14:35;;;;;;;;;;;;;;;20.72;31.69;99479.38;5096056;28;974;-48
2021/01/30 00:17:01;;;;;;;;;;;;;;;20.08;32.72;99481.88;5099594;28;815;-51
2021/01/30 00:19:26;;;;;;;;;;;;;;;19.93;33.03;99476.88;5099792;28;807;-44
2021/01/30 00:21:53;;;;;;;;;;;;;;;19.43;34.01;99458.88;5099453;28;751;-44
2021/01/30 00:24:19;;;;;;;;;;;;;;;20.12;32.77;99463.50;5081299;28;835;-53
2021/01/30 00:26:48;;;;;;;;;;;;;;;20.83;31.61;99464.84;5099652;28;810;-47
2021/01/30 00:29:14;;;;;;;;;;;;;;;21.26;30.79;99449.09;5099098;28;953;-53
2021/01/30 00:31:39;;;;;;;;;;;;;;;20.54;32.04;99445.47;5099326;28;1914;-44
2021/01/30 00:34:05;;;;;;;;;;;;;;;20.28;32.48;99438.13;5099418;28;747;-46
2021/01/30 00:36:30;;;;;;;;;;;;;;;19.76;33.29;99442.63;5099253;28;854;-53
2021/01/30 00:38:56;;;;;;;;;;;;;;;19.25;34.36;99441.53;5099602;28;813;-51
2021/01/30 00:41:21;;;;;;;;;;;;;;;20.02;32.94;99441.81;5099049;28;806;-50
2021/01/30 00:43:47;;;;;;;;;;;;;;;20.73;31.64;99443.13;5098634;28;969;-52
2021/01/30 00:46:12;;;;;;;;;;;;;;;20.24;32.45;99431.66;5099070;28;799;-53
2021/01/30 00:48:38;;;;;;;;;;;;;;;20.13;32.94;99426.50;5098703;28;1272;-54
2021/01/30 00:51:03;;;;;;;;;;;;;;;19.76;33.29;99417.81;5081015;28;1977;-50
2021/01/30 00:53:29;;;;;;;;;;;;;;;19.25;34.46;99422.25;5099476;28;775;-54
2021/01/30 00:55:54;;;;;;;;;;;;;;;20.16;32.72;99423.06;5098596;28;752;-48
2021/01/30 00:58:20;;;;;;;;;;;;;;;20.83;31.37;99417.88;5064848;28;1396;-54
2021/01/30 01:00:46;;;;;;;;;;;;;;;20.39;32.25;99420.06;5078933;28;788;-47
2021/01/30 01:03:17;;;;;;;;;;;;;;;20.16;32.55;99419.50;5078508;28;815;-52
2021/01/30 01:05:58;;;;;;;;;;;;;;;19.36;34.30;99404.25;5060978;28;1261;-50
2021/01/30 01:08:23;;;;;;;;;;;;;;;20.05;33.18;99402.50;5078831;28;799;-53
2021/01/30 01:10:49;;;;;;;;;;;;;;;20.64;31.76;99384.34;5077879;28;1969;-54
2021/01/30 01:13:14;;;;;;;;;;;;;;;20.15;32.56;99385.56;5083966;28;943;-44
2021/01/30 01:15:40;;;;;;;;;;;;;;;19.88;33.07;99375.81;5098758;28;752;-52
2021/01/30 01:18:05;;;;;;;;;;;;;;;19.35;34.40;99369.56;5098128;28;842;-44
2021/01/30 01:20:31;;;;;;;;;;;;;;;20.05;33.15;99365.81;5098747;28;751;-46
2021/01/30 01:22:56;;;;;;;;;;;;;;;20.73;31.62;99360.25;5098619;28;794;-50
2021/01/30 01:25:22;;;;;;;;;;;;;;;20.07;32.98;99361.59;5098213;28;824;-51
2021/01/30 01:27:47;;;;;;;;;;;;;;;19.87;33.30;99351.31;5097907;28;974;-52
2021/01/30 01:30:13;;;;;;;;;;;;;;;19.41;33.98;99350.91;5098414;28;1902;-44
2021/01/30 01:32:38;;;;;;;;;;;;;;;19.83;33.26;99346.44;5097853;28;767;-49
2021/01/30 01:35:04;;;;;;;;;;;;;;;20.64;31.89;99348.44;5098433;28;787;-50
2021/01/30 01:37:29;;;;;;;;;;;;;;;20.26;32.43;99339.09;5098291;28;822;-49
2021/01/30 01:39:55;;;;;;;;;;;;;;;20.16;32.69;99337.53;5097765;28;751;-44
2021/01/30 01:42:21;;;;;;;;;;;;;;;19.86;33.32;99325.66;5098503;28;779;-44
2021/01/30 01:44:47;;;;;;;;;;;;;;;19.67;33.68;99323.28;5097474;28;942;-49
2021/01/30 01:47:20;;;;;;;;;;;;;;;20.51;32.14;99319.94;5097509;28;1000;-50
2021/01/30 01:49:45;;;;;;;;;;;;;;;20.48;32.02;99313.13;5080324;28;1905;-52
2021/01/30 01:52:20;;;;;;;;;;;;;;;20.05;32.76;99305.94;5079921;28;760;-51
2021/01/30 01:54:45;;;;;;;;;;;;;;;19.63;33.79;99309.31;5097889;28;752;-43
2021/01/30 01:57:12;;;;;;;;;;;;;;;19.74;33.69;99297.91;5073673;28;1448;-51
2021/01/30 01:59:39;;;;;;;;;;;;;;;20.42;32.46;99300.66;5059328;28;963;-51
2021/01/30 02:02:04;;;;;;;;;;;;;;;20.35;32.48;99295.66;5059230;28;974;-47
2021/01/30 02:04:30;;;;;;;;;;;;;;;20.17;32.69;99289.47;5077759;28;851;-45
2021/01/30 02:06:55;;;;;;;;;;;;;;;19.80;33.56;99291.13;5077397;28;859;-50
2021/01/30 02:09:22;;;;;;;;;;;;;;;19.48;34.20;99280.34;5076470;28;771;-48
2021/01/30 02:11:58;;;;;;;;;;;;;;;20.31;32.65;99271.84;5077225;28;1913;-48
2021/01/30 02:14:24;;;;;;;;;;;;;;;20.30;32.59;99267.44;5058704;28;1060;-52
2021/01/30 02:17:11;;;;;;;;;;;;;;;20.08;33.04;99263.06;5059054;28;779;-50
2021/01/30 02:19:37;;;;;;;;;;;;;;;19.49;34.12;99265.44;5077225;28;847;-51
2021/01/30 02:22:11;;;;;;;;;;;;;;;19.58;34.23;99273.66;5076895;28;807;-48
2021/01/30 02:24:55;;;;;;;;;;;;;;;20.49;32.22;99262.28;5076730;28;771;-45
2021/01/30 02:27:24;;;;;;;;;;;;;;;20.41;32.44;99254.06;5077051;28;780;-45
2021/01/30 02:29:59;;;;;;;;;;;;;;;20.04;33.03;99257.41;5078267;28;1980;-49
2021/01/30 02:32:34;;;;;;;;;;;;;;;19.34;34.48;99257.69;5097116;28;748;-44
2021/01/30 02:35:18;;;;;;;;;;;;;;;19.87;33.46;99252.81;5097150;28;759;-51
2021/01/30 02:37:52;;;;;;;;;;;;;;;20.68;31.84;99247.22;5097087;28;764;-47
2021/01/30 02:40:18;;;;;;;;;;;;;;;20.24;32.57;99249.50;5079074;28;764;-53
2021/01/30 02:42:49;;;;;;;;;;;;;;;19.96;33.34;99252.75;5096446;28;1025;-44
2021/01/30 02:45:17;;;;;;;;;;;;;;;19.58;34.08;99243.31;5078688;28;743;-51
2021/01/30 02:47:43;;;;;;;;;;;;;;;19.66;34.04;99236.97;5096894;28;1122;-52
2021/01/30 02:50:17;;;;;;;;;;;;;;;20.47;32.23;99231.44;5078496;28;1971;-53
2021/01/30 02:52:43;;;;;;;;;;;;;;;20.55;32.09;99220.66;5078713;28;803;-53
2021/01/30 02:55:09;;;;;;;;;;;;;;;20.08;33.14;99233.53;5078600;28;736;-44
2021/01/30 02:57:35;;;;;;;;;;;;;;;19.81;33.28;99230.13;5068531;28;1127;-52
2021/01/30 03:00:01;;;;;;;;;;;;;;;19.40;34.46;99222.50;5076107;28;828;-44
2021/01/30 03:02:26;;;;;;;;;;;;;;;20.31;32.75;99216.63;5058519;28;820;-52
2021/01/30 03:04:52;;;;;;;;;;;;;;;21.04;31.30;99215.31;5076854;28;763;-52
2021/01/30 03:07:18;;;;;;;;;;;;;;;20.38;32.36;99211.38;5058623;28;854;-52
2021/01/30 03:09:46;;;;;;;;;;;;;;;20.06;32.91;99216.47;5076220;28;846;-52
2021/01/30 03:12:11;;;;;;;;;;;;;;;19.87;33.37;99214.19;5076383;28;743;-54
2021/01/30 03:14:45;;;;;;;;;;;;;;;19.37;34.37;99234.97;5076064;28;959;-54
2021/01/30 03:17:10;;;;;;;;;;;;;;;20.21;32.99;99217.03;5058653;28;783;-52
2021/01/30 03:19:36;;;;;;;;;;;;;;;20.76;31.96;99218.72;5058529;28;791;-44
2021/01/30 03:22:03;;;;;;;;;;;;;;;20.18;32.93;99213.78;5057250;28;763;-52
2021/01/30 03:24:28;;;;;;;;;;;;;;;20.02;33.29;99215.56;5058186;28;1432;-51
2021/01/30 03:26:54;;;;;;;;;;;;;;;19.31;34.30;99219.78;5058313;28;776;-53
2021/01/30 03:29:19;;;;;;;;;;;;;;;19.94;33.40;99205.38;5072754;28;1072;-53
2021/01/30 03:31:45;;;;;;;;;;;;;;;20.72;31.94;99203.97;5096021;28;1926;-46
2021/01/30 03:34:11;;;;;;;;;;;;;;;20.39;32.49;99207.47;5096461;28;755;-55
2021/01/30 03:36:36;;;;;;;;;;;;;;;20.18;32.80;99200.00;5096022;28;874;-52
2021/01/30 03:39:03;;;;;;;;;;;;;;;19.75;33.75;99211.28;5096150;28;764;-53
2021/01/30 03:41:28;;;;;;;;;;;;;;;19.69;34.03;99207.91;5096315;28;836;-53
2021/01/30 03:43:54;;;;;;;;;;;;;;;20.51;32.42;99204.78;5095570;28;961;-49
2021/01/30 03:46:19;;;;;;;;;;;;;;;20.36;32.61;99202.63;5095655;28;1076;-47
2021/01/30 03:48:44;;;;;;;;;;;;;;;20.08;33.25;99192.13;5096283;28;759;-47
2021/01/30 03:51:10;;;;;;;;;;;;;;;19.86;33.45;99196.00;5095907;28;1989;-54
2021/01/30 03:53:36;;;;;;;;;;;;;;;19.44;34.51;99191.16;5096115;28;731;-44
2021/01/30 03:56:02;;;;;;;;;;;;;;;20.40;32.49;99194.47;5096263;28;899;-53
2021/01/30 03:58:27;;;;;;;;;;;;;;;20.42;32.54;99195.75;5061390;28;1292;-43
2021/01/30 04:00:53;;;;;;;;;;;;;;;20.21;32.70;99179.19;5075365;28;816;-49
2021/01/30 04:03:18;;;;;;;;;;;;;;;19.91;33.34;99175.69;5076223;28;779;-54
2021/01/30 04:05:43;;;;;;;;;;;;;;;19.60;34.21;99182.34;5075829;28;536;-54
2021/01/30 04:08:09;;;;;;;;;;;;;;;20.54;32.22;99172.09;5075357;28;855;-52
2021/01/30 04:10:35;;;;;;;;;;;;;;;20.76;32.03;99170.94;5075550;28;1917;-55
2021/01/30 04:13:01;;;;;;;;;;;;;;;20.34;32.62;99169.84;5075560;28;955;-54
2021/01/30 04:15:28;;;;;;;;;;;;;;;20.03;33.16;99166.69;5075502;28;815;-48
2021/01/30 04:17:53;;;;;;;;;;;;;;;19.59;34.20;99166.94;5075828;28;538;-55
2021/01/30 04:20:19;;;;;;;;;;;;;;;19.87;33.57;99155.47;5075495;28;804;-45
2021/01/30 04:22:44;;;;;;;;;;;;;;;20.60;32.24;99173.50;5075715;28;736;-44
2021/01/30 04:25:10;;;;;;;;;;;;;;;20.25;32.71;99160.81;5075816;28;901;-47
2021/01/30 04:27:35;;;;;;;;;;;;;;;20.10;33.15;99159.47;5075518;28;1033;-49
2021/01/30 04:30:01;;;;;;;;;;;;;;;19.65;33.91;99162.84;5075144;28;1972;-45
2021/01/30 04:32:26;;;;;;;;;;;;;;;19.32;34.95;99157.97;5077054;28;791;-53
2021/01/30 04:34:52;;;;;;;;;;;;;;;20.38;32.76;99161.69;5079382;28;751;-55
2021/01/30 04:37:17;;;;;;;;;;;;;;;20.49;32.21;99157.34;5079540;28;763;-55
2021/01/30 04:39:43;;;;;;;;;;;;;;;20.15;32.98;99150.22;5079271;28;499;-44
2021/01/30 04:42:10;;;;;;;;;;;;;;;19.86;33.54;99148.31;5079098;28;752;-47
2021/01/30 04:44:38;;;;;;;;;;;;;;;19.43;34.62;99150.97;5060754;28;947;-44
2021/01/30 04:47:09;;;;;;;;;;;;;;;20.40;32.72;99153.06;5060820;28;1429;-53
2021/01/30 04:49:44;;;;;;;;;;;;;;;20.37;32.84;99148.22;5061126;28;756;-50
2021/01/30 04:52:21;;;;;;;;;;;;;;;20.13;33.15;99142.28;5077132;28;1914;-52
2021/01/30 04:54:56;;;;;;;;;;;;;;;19.83;33.67;99141.53;5095154;28;808;-51
2021/01/30 04:57:39;;;;;;;;;;;;;;;19.32;34.69;99133.19;5090836;28;920;-54
2021/01/30 05:00:08;;;;;;;;;;;;;;;20.45;32.58;99130.78;5059992;28;884;-47
2021/01/30 05:02:46;;;;;;;;;;;;;;;20.47;32.43;99126.53;5078556;28;732;-45
2021/01/30 05:05:12;;;;;;;;;;;;;;;20.05;33.42;99120.25;5079003;28;759;-55
2021/01/30 05:07:44;;;;;;;;;;;;;;;19.73;33.95;99111.56;5078626;28;801;-54
2021/01/30 05:10:16;;;;;;;;;;;;;;;19.51;34.46;99115.44;5078228;28;1913;-56
2021/01/30 05:12:45;;;;;;;;;;;;;;;20.42;32.44;99109.38;5060916;28;958;-56
2021/01/30 05:15:16;;;;;;;;;;;;;;;20.60;32.42;99112.75;5078651;28;791;-44
2021/01/30 05:18:11;;;;;;;;;;;;;;;20.15;33.13;99109.59;5078191;28;835;-46
2021/01/30 05:20:37;;;;;;;;;;;;;;;19.94;33.81;99104.09;5060566;28;1522;-55
2021/01/30 05:23:03;;;;;;;;;;;;;;;19.67;34.37;99103.47;5059641;28;889;-57
2021/01/30 05:25:29;;;;;;;;;;;;;;;20.45;32.99;99101.19;5060406;28;854;-56
2021/01/30 05:27:57;;;;;;;;;;;;;;;20.80;32.02;99100.06;5059228;28;820;-59
2021/01/30 05:30:46;;;;;;;;;;;;;;;20.41;32.71;99094.78;5078311;28;1910;-52
2021/01/30 05:33:11;;;;;;;;;;;;;;;20.05;33.52;99093.47;5040773;28;1102;-60
2021/01/30 05:35:41;;;;;;;;;;;;;;;19.42;34.87;99088.72;5077846;28;721;-55
2021/01/30 05:38:29;;;;;;;;;;;;;;;20.32;33.19;99080.25;5060038;28;826;-49
2021/01/30 05:40:56;;;;;;;;;;;;;;;20.50;32.71;99076.13;5040281;28;1252;-48
2021/01/30 05:43:21;;;;;;;;;;;;;;;20.28;33.23;99085.63;5058848;28;959;-49
2021/01/30 05:45:50;;;;;;;;;;;;;;;19.99;33.48;99083.78;5077274;28;815;-57
2021/01/30 05:48:16;;;;;;;;;;;;;;;19.74;34.23;99080.06;5060374;28;1120;-55
2021/01/30 05:50:42;;;;;;;;;;;;;;;20.60;32.37;99072.13;5077441;28;1969;-50
2021/01/30 05:53:07;;;;;;;;;;;;;;;20.68;32.21;99070.47;5077559;28;855;-56
2021/01/30 05:55:33;;;;;;;;;;;;;;;20.10;33.41;99071.19;5059910;28;835;-51
2021/01/30 05:58:03;;;;;;;;;;;;;;;20.05;33.48;99065.06;5089388;28;1166;-50
2021/01/30 06:00:29;;;;;;;;;;;;;;;19.39;34.73;99061.84;5097965;28;836;-47
2021/01/30 06:03:01;;;;;;;;;;;;;;;20.10;33.33;99065.66;5097909;28;752;-56
2021/01/30 06:05:30;;;;;;;;;;;;;;;20.70;32.46;99059.88;5097671;28;818;-47
2021/01/30 06:07:58;;;;;;;;;;;;;;;20.16;33.63;99064.31;5097701;28;815;-46
2021/01/30 06:10:23;;;;;;;;;;;;;;;20.13;33.50;99056.72;5063905;28;1990;-45
2021/01/30 06:13:07;;;;;;;;;;;;;;;19.47;34.93;99051.88;5059045;28;977;-45
2021/01/30 06:15:33;;;;;;;;;;;;;;;20.15;33.48;99048.91;5058843;28;904;-47
2021/01/30 06:17:59;;;;;;;;;;;;;;;20.66;32.46;99045.09;5077335;28;799;-56
2021/01/30 06:20:25;;;;;;;;;;;;;;;20.19;33.58;99051.81;5076833;28;867;-52
2021/01/30 06:23:11;;;;;;;;;;;;;;;20.12;33.43;99055.09;5058792;28;840;-54
2021/01/30 06:25:36;;;;;;;;;;;;;;;19.40;34.75;99057.13;5076673;28;1506;-46
2021/01/30 06:28:03;;;;;;;;;;;;;;;20.10;33.64;99051.06;5076396;28;954;-56
2021/01/30 06:30:33;;;;;;;;;;;;;;;20.78;32.21;99056.19;5059146;28;1902;-56
2021/01/30 06:33:00;;;;;;;;;;;;;;;20.13;33.51;99051.22;5077024;28;827;-54
2021/01/30 06:35:26;;;;;;;;;;;;;;;20.11;33.70;99052.69;5058791;28;759;-53
2021/01/30 06:37:53;;;;;;;;;;;;;;;19.62;34.55;99051.28;5059614;28;768;-55
2021/01/30 06:40:24;;;;;;;;;;;;;;;20.02;33.78;99038.97;5077147;28;775;-56
2021/01/30 06:42:50;;;;;;;;;;;;;;;20.67;32.38;99038.44;5058229;28;883;-54
2021/01/30 06:45:26;;;;;;;;;;;;;;;21.17;31.53;99042.84;5091853;28;872;-53
2021/01/30 06:47:52;;;;;;;;;;;;;;;20.61;32.49;99031.53;5078402;28;1224;-54
2021/01/30 06:50:18;;;;;;;;;;;;;;;20.36;33.16;99028.72;5096243;28;1918;-55
2021/01/30 06:52:44;;;;;;;;;;;;;;;19.94;33.89;99031.59;5097013;28;743;-44
2021/01/30 06:55:10;;;;;;;;;;;;;;;19.53;34.65;99024.91;5096620;28;834;-53
2021/01/30 06:57:56;;;;;;;;;;;;;;;19.70;34.49;99015.69;5086414;28;1149;-53
2021/01/30 07:00:23;;;;;;;;;;;;;;;20.59;32.69;99012.53;5062296;28;1511;-48
2021/01/30 07:02:52;;;;;;;;;;;;;;;20.35;33.09;99011.34;5058359;28;876;-52
2021/01/30 07:05:30;;;;;;;;;;;;;;;20.14;33.34;99011.41;5058122;28;1439;-49
2021/01/30 07:08:14;;;;;;;;;;;;;;;19.55;34.62;99009.66;5076436;28;736;-52
2021/01/30 07:10:49;;;;;;;;;;;;;;;19.61;34.66;99007.50;5058201;28;1977;-55
2021/01/30 07:13:14;;;;;;;;;;;;;;;20.56;32.77;99006.91;5081934;28;867;-51
2021/01/30 07:15:41;;;;;;;;;;;;;;;20.44;33.07;99004.91;5096604;28;815;-51
2021/01/30 07:18:21;;;;;;;;;;;;;;;20.27;33.19;99008.69;5078319;28;752;-44
2021/01/30 07:21:13;;;;;;;;;;;;;;;19.77;34.27;99014.00;5096274;28;763;-54
2021/01/30 07:23:44;;;;;;;;;;;;;;;19.86;34.21;99002.94;5091622;28;1025;-52
2021/01/30 07:26:18;;;;;;;;;;;;;;;20.64;32.50;99009.53;5078275;28;802;-53
2021/01/30 07:28:48;;;;;;;;;;;;;;;20.27;33.39;99003.16;5077749;28;966;-52
2021/01/30 07:31:28;;;;;;;;;;;;;;;20.14;33.52;98994.84;5078043;28;1914;-52
2021/01/30 07:33:55;;;;;;;;;;;;;;;19.58;34.63;98991.63;5096003;28;755;-52
2021/01/30 07:36:26;;;;;;;;;;;;;;;20.00;33.92;98995.16;5078673;28;767;-47
2021/01/30 07:38:53;;;;;;;;;;;;;;;20.72;32.34;99002.34;5096122;28;815;-52
2021/01/30 07:41:30;;;;;;;;;;;;;;;20.11;33.80;98995.53;5077804;28;894;-46
2021/01/30 07:44:22;;;;;;;;;;;;;;;20.09;33.74;99003.38;5076995;28;1021;-47
2021/01/30 07:46:48;;;;;;;;;;;;;;;19.36;35.07;98998.28;5036833;28;1165;-55
2021/01/30 07:49:20;;;;;;;;;;;;;;;20.06;33.84;98997.72;5074684;28;1285;-55
2021/01/30 07:51:46;;;;;;;;;;;;;;;20.79;32.34;98999.00;5076038;28;1913;-46
2021/01/30 07:54:11;;;;;;;;;;;;;;;20.16;33.51;99000.84;5075941;28;775;-52
2021/01/30 07:56:41;;;;;;;;;;;;;;;20.21;33.26;98996.25;5074567;28;1162;-48
2021/01/30 07:59:19;;;;;;;;;;;;;;;19.71;34.42;98989.75;5054249;28;939;-48
2021/01/30 08:01:48;;;;;;;;;;;;;;;20.08;33.79;98998.97;5055552;28;807;-56
2021/01/30 08:04:17;;;;;;;;;;;;;;;20.73;32.38;98995.66;5055834;28;823;-50
2021/01/30 08:06:49;;;;;;;;;;;;;;;20.28;33.30;98997.28;5056009;28;776;-54
2021/01/30 08:09:20;;;;;;;;;;;;;;;20.12;33.73;98999.91;5058440;28;831;-53
2021/01/30 08:11:48;;;;;;;;;;;;;;;19.75;34.37;98996.19;5059461;28;1981;-50
2021/01/30 08:14:32;;;;;;;;;;;;;;;19.87;34.26;98992.72;5059393;28;959;-54
2021/01/30 08:17:04;;;;;;;;;;;;;;;20.63;32.68;99002.41;5059593;28;843;-51
2021/01/30 08:19:32;;;;;;;;;;;;;;;20.11;33.52;99003.81;5057762;28;832;-47
2021/01/30 08:22:03;;;;;;;;;;;;;;;20.11;33.56;99008.53;5059412;28;783;-54
2021/01/30 08:24:34;;;;;;;;;;;;;;;19.46;35.01;99012.50;5058444;28;993;-56
2021/01/30 08:27:10;;;;;;;;;;;;;;;20.06;33.97;99001.25;5057832;28;787;-58
2021/01/30 08:29:43;;;;;;;;;;;;;;;20.74;32.38;99002.78;5058801;28;1009;-50
2021/01/30 08:32:24;;;;;;;;;;;;;;;20.33;33.23;98996.28;5058012;28;1914;-59
2021/01/30 08:34:50;;;;;;;;;;;;;;;20.20;33.70;98989.91;5057739;28;930;-59
2021/01/30 08:37:15;;;;;;;;;;;;;;;19.59;34.57;98996.00;5058204;28;807;-54
2021/01/30 08:39:59;;;;;;;;;;;;;;;19.99;34.07;98995.50;5059342;28;811;-52
2021/01/30 08:42:25;;;;;;;;;;;;;;;20.74;32.52;98997.28;5059053;28;770;-44
2021/01/30 08:44:50;;;;;;;;;;;;;;;20.27;33.53;98986.59;5058687;28;959;-55
2021/01/30 08:47:17;;;;;;;;;;;;;;;20.27;33.60;98983.84;5066506;28;1004;-55
2021/01/30 08:49:58;;;;;;;;;;;;;;;19.82;34.22;98985.44;5060206;28;943;-56
2021/01/30 08:52:33;;;;;;;;;;;;;;;20.11;33.91;98987.25;5078971;28;807;-51
2021/01/30 08:54:59;;;;;;;;;;;;;;;20.80;32.59;98989.56;5060426;28;935;-55
2021/01/30 08:57:30;;;;;;;;;;;;;;;20.07;33.93;98991.84;5068560;28;1285;-56
2021/01/30 08:59:56;;;;;;;;;;;;;;;20.10;33.67;98988.41;5098706;28;938;-52
2021/01/30 09:02:27;;;;;;;;;;;;;;;19.44;35.13;98992.69;5080560;28;819;-55
2021/01/30 09:05:11;;;;;;;;;;;;;;;20.10;33.74;98980.13;5098964;28;787;-55
2021/01/30 09:07:37;;;;;;;;;;;;;;;20.78;32.42;98978.84;5098970;28;779;-54
2021/01/30 09:10:21;;;;;;;;;;;;;;;20.30;33.46;98972.09;5098247;28;1913;-54
2021/01/30 09:13:03;;;;;;;;;;;;;;;20.15;33.68;98970.84;5098291;28;1001;-54
2021/01/30 09:15:38;;;;;;;;;;;;;;;19.34;35.43;98976.59;5098872;28;861;-53
2021/01/30 09:18:07;;;;;;;;;;;;;;;20.26;33.46;98971.19;5098138;28;830;-55
2021/01/30 09:20:33;;;;;;;;;;;;;;;20.74;32.59;98969.66;5081081;28;726;-55
2021/01/30 09:23:02;;;;;;;;;;;;;;;20.33;33.38;98971.44;5080481;28;974;-54
2021/01/30 09:25:27;;;;;;;;;;;;;;;20.12;33.98;98966.00;5080214;28;788;-55
2021/01/30 09:27:56;;;;;;;;;;;;;;;19.53;35.02;98967.84;5098145;28;973;-54
2021/01/30 09:30:22;;;;;;;;;;;;;;;20.20;33.84;98969.81;5080226;28;1906;-54
2021/01/30 09:32:48;;;;;;;;;;;;;;;20.78;32.67;98965.03;5098093;28;763;-51
2021/01/30 09:35:18;;;;;;;;;;;;;;;20.25;33.56;98958.56;5098336;28;759;-56
2021/01/30 09:37:44;;;;;;;;;;;;;;;20.18;33.56;98948.88;5080706;28;805;-56
2021/01/30 09:40:23;;;;;;;;;;;;;;;19.49;35.01;98950.38;5097754;28;790;-48
2021/01/30 09:43:15;;;;;;;;;;;;;;;20.25;33.61;98953.03;5097892;28;973;-55
2021/01/30 09:45:46;;;;;;;;;;;;;;;20.32;33.56;98947.75;5093302;28;1159;-56
2021/01/30 09:48:11;;;;;;;;;;;;;;;20.13;33.97;98938.06;5097749;28;1169;-54
2021/01/30 09:50:41;;;;;;;;;;;;;;;19.93;34.34;98934.22;5079470;28;1913;-56
2021/01/30 09:53:09;;;;;;;;;;;;;;;19.56;35.22;98939.59;5080366;28;747;-57
2021/01/30 09:55:34;;;;;;;;;;;;;;;20.58;33.03;98943.84;5079710;28;802;-56
2021/01/30 09:58:01;;;;;;;;;;;;;;;20.27;33.62;98939.69;5084450;28;1137;-56
2021/01/30 10:00:35;;;;;;;;;;;;;;;20.22;33.68;98943.47;5060052;28;883;-55
2021/01/30 10:03:05;;;;;;;;;;;;;;;19.89;34.25;98938.00;5077301;28;771;-50
2021/01/30 10:05:30;;;;;;;;;;;;;;;19.36;35.30;98935.69;5077301;28;724;-54
2021/01/30 10:07:56;;;;;;;;;;;;;;;20.41;33.50;98933.84;5077785;28;746;-57
2021/01/30 10:10:31;;;;;;;;;;;;;;;20.66;32.87;98940.16;5059343;28;1913;-55
2021/01/30 10:12:56;;;;;;;;;;;;;;;20.14;33.78;98936.91;5076914;28;978;-55
2021/01/30 10:15:25;;;;;;;;;;;;;;;19.98;34.06;98939.53;5059566;28;792;-48
2021/01/30 10:17:51;;;;;;;;;;;;;;;19.37;35.23;98945.59;5058957;28;791;-56
2021/01/30 10:20:16;;;;;;;;;;;;;;;20.32;33.89;98945.78;5076993;28;816;-55
2021/01/30 10:22:46;;;;;;;;;;;;;;;20.68;32.90;98948.94;5077484;28;751;-54
2021/01/30 10:25:13;;;;;;;;;;;;;;;20.26;33.75;98943.59;5076880;28;751;-56
2021/01/30 10:27:38;;;;;;;;;;;;;;;20.06;34.20;98946.06;5059272;28;1010;-55
2021/01/30 10:30:05;;;;;;;;;;;;;;;19.42;35.17;98948.16;5076682;28;1964;-53
2021/01/30 10:32:30;;;;;;;;;;;;;;;20.21;34.23;98952.09;5076505;28;774;-54
2021/01/30 10:34:56;;;;;;;;;;;;;;;20.66;32.94;98956.72;5076958;28;763;-52
2021/01/30 10:37:31;;;;;;;;;;;;;;;20.27;33.73;98961.75;5059125;28;758;-51
2021/01/30 10:39:58;;;;;;;;;;;;;;;20.03;34.26;98952.28;5076359;28;853;-44
2021/01/30 10:42:24;;;;;;;;;;;;;;;19.57;34.98;98952.25;5058395;28;1095;-52
2021/01/30 10:44:53;;;;;;;;;;;;;;;20.21;33.88;98957.63;5076379;28;995;-55
2021/01/30 10:47:20;;;;;;;;;;;;;;;20.76;32.99;98967.38;5058387;28;1040;-50
2021/01/30 10:49:45;;;;;;;;;;;;;;;20.35;33.72;98958.09;5076399;28;835;-45
2021/01/30 10:52:20;;;;;;;;;;;;;;;20.25;33.71;98959.34;5058714;28;1909;-52
2021/01/30 10:54:46;;;;;;;;;;;;;;;19.56;35.32;98958.06;5058435;28;820;-53
2021/01/30 10:57:17;;;;;;;;;;;;;;;19.96;34.59;98955.63;5076536;28;1178;-56
2021/01/30 10:59:44;;;;;;;;;;;;;;;20.66;33.11;98952.03;5076195;28;958;-56
2021/01/30 11:02:39;;;;;;;;;;;;;;;20.20;34.12;98956.00;5076202;28;811;-55
2021/01/30 11:05:19;;;;;;;;;;;;;;;20.05;34.33;98952.75;5059160;28;1420;-55
2021/01/30 11:07:45;;;;;;;;;;;;;;;19.46;35.39;98957.34;5076541;28;805;-55
2021/01/30 11:10:29;;;;;;;;;;;;;;;19.67;35.05;98956.53;5076010;28;1909;-55
2021/01/30 11:13:14;;;;;;;;;;;;;;;20.62;33.44;98955.81;5078988;28;1001;-55
2021/01/30 11:15:42;;;;;;;;;;;;;;;20.24;34.00;98951.41;5096458;28;775;-55
2021/01/30 11:18:19;;;;;;;;;;;;;;;20.27;33.80;98947.97;5096858;28;835;-49
2021/01/30 11:20:46;;;;;;;;;;;;;;;19.49;35.26;98947.59;5078444;28;827;-54
2021/01/30 11:23:31;;;;;;;;;;;;;;;20.19;34.17;98949.69;5078185;28;760;-54
2021/01/30 11:25:57;;;;;;;;;;;;;;;20.63;33.21;98951.91;5096387;28;1677;-54
2021/01/30 11:28:35;;;;;;;;;;;;;;;20.14;34.06;98958.97;5095724;28;961;-55
2021/01/30 11:31:00;;;;;;;;;;;;;;;20.04;34.23;98951.16;5095948;28;1913;-53
2021/01/30 11:33:26;;;;;;;;;;;;;;;19.38;35.51;98961.00;5096172;28;858;-55
2021/01/30 11:35:52;;;;;;;;;;;;;;;19.98;34.67;98960.81;5078559;28;755;-48
2021/01/30 11:38:18;;;;;;;;;;;;;;;20.66;33.25;98963.06;5078159;28;847;-56
2021/01/30 11:40:44;;;;;;;;;;;;;;;20.20;34.30;98961.53;5077998;28;827;-54
2021/01/30 11:43:09;;;;;;;;;;;;;;;20.21;33.98;98958.41;5098588;28;1029;-52
2021/01/30 11:45:35;;;;;;;;;;;;;;;19.61;35.26;98968.91;5100141;28;815;-51
2021/01/30 11:48:00;;;;;;;;;;;;;;;20.00;34.77;98964.81;5100435;28;988;-54
2021/01/30 11:50:26;;;;;;;;;;;;;;;20.71;33.15;98967.59;5100308;28;1991;-57
2021/01/30 11:52:51;;;;;;;;;;;;;;;20.31;34.06;98959.94;5100166;28;799;-54
2021/01/30 11:55:18;;;;;;;;;;;;;;;20.31;33.85;98959.94;5100023;28;756;-45
2021/01/30 11:57:44;;;;;;;;;;;;;;;19.72;35.14;98959.06;5089231;28;1094;-56
2021/01/30 12:00:10;;;;;;;;;;;;;;;19.63;35.46;98963.88;5079761;28;819;-56
2021/01/30 12:02:36;;;;;;;;;;;;;;;20.51;33.56;98959.03;5079781;28;803;-48
2021/01/30 12:05:03;;;;;;;;;;;;;;;20.27;33.94;98953.47;5079883;28;747;-55
2021/01/30 12:07:28;;;;;;;;;;;;;;;20.12;34.41;98958.53;5079449;28;744;-55
2021/01/30 12:09:54;;;;;;;;;;;;;;;19.79;35.02;98964.03;5079577;28;806;-54
2021/01/30 12:12:19;;;;;;;;;;;;;;;19.45;35.91;98966.75;5079700;28;1910;-45
2021/01/30 12:14:44;;;;;;;;;;;;;;;20.40;34.01;98977.22;5078851;28;958;-55
2021/01/30 12:17:39;;;;;;;;;;;;;;;20.40;33.90;98974.44;5061494;28;1293;-47
2021/01/30 12:20:06;;;;;;;;;;;;;;;20.13;34.66;98976.69;5051706;28;1211;-49
2021/01/30 12:22:31;;;;;;;;;;;;;;;19.91;35.49;98977.91;5079026;28;875;-59
2021/01/30 12:24:57;;;;;;;;;;;;;;;19.53;36.39;98986.31;5079547;28;756;-54
2021/01/30 12:27:22;;;;;;;;;;;;;;;20.03;35.60;98985.41;5079385;28;827;-55
2021/01/30 12:29:48;;;;;;;;;;;;;;;20.73;33.98;98990.13;5078591;28;962;-47
2021/01/30 12:32:13;;;;;;;;;;;;;;;20.24;35.07;98992.81;5079223;28;1909;-56
2021/01/30 12:34:39;;;;;;;;;;;;;;;20.28;34.86;98993.75;5079506;28;735;-49
2021/01/30 12:37:05;;;;;;;;;;;;;;;19.78;35.74;98993.56;5078839;28;786;-55
2021/01/30 12:39:30;;;;;;;;;;;;;;;19.59;35.99;98993.25;5079124;28;799;-58
2021/01/30 12:41:56;;;;;;;;;;;;;;;19.69;35.82;98987.31;5079083;28;743;-49
2021/01/30 12:44:22;;;;;;;;;;;;;;;20.02;35.14;98988.50;5078636;28;962;-57
2021/01/30 12:46:48;;;;;;;;;;;;;;;19.99;35.15;98985.28;5078897;28;1154;-58
2021/01/30 12:49:13;;;;;;;;;;;;;;;20.06;35.14;98998.50;5078797;28;788;-54
2021/01/30 12:51:39;;;;;;;;;;;;;;;20.18;34.76;98987.50;5079099;28;1913;-52
2021/01/30 12:54:05;;;;;;;;;;;;;;;20.22;34.73;98998.69;5078565;28;772;-55
2021/01/30 12:56:30;;;;;;;;;;;;;;;20.24;34.75;98998.34;5079373;28;1162;-44
2021/01/30 12:58:56;;;;;;;;;;;;;;;20.22;34.55;99001.44;5098448;28;1009;-50
2021/01/30 13:01:21;;;;;;;;;;;;;;;20.18;34.51;98998.53;5098810;28;854;-44
2021/01/30 13:03:47;;;;;;;;;;;;;;;20.21;34.53;99008.09;5099348;28;756;-44
2021/01/30 13:06:12;;;;;;;;;;;;;;;20.20;34.79;99011.19;5099367;28;772;-55
2021/01/30 13:08:38;;;;;;;;;;;;;;;20.14;34.93;99014.16;5098777;28;784;-45
2021/01/30 13:11:03;;;;;;;;;;;;;;;20.16;34.74;99011.88;5098890;28;1984;-51
2021/01/30 13:13:28;;;;;;;;;;;;;;;20.16;34.61;99008.31;5098468;28;977;-55